シドニー の空港の天気 - METARとTAF

シドニー国際空港 ( YSSY / SYD ) - オーストラリア ニューサウスウェールズ州、Mascot
飛行場実況気象(Metar)
観測時間12/15 23:30 AEDT (12/15 12:30 UTC)
風向・風速北 4m/s
視程10km以上
天気現象
全天の8割程度の雲 雲底高度 210m
全天の8割程度の雲 雲底高度 370m
気温24℃
湿度89%
気圧1006hPa
METARYSSY 151230Z 01008KT 9999 BKN007 BKN012 24/22 Q1006
過去の天気等 Google飛行場航空写真 Wunderground天気予報

過去48時間のMETAR

飛行場予報(TAF)
発表時間: 12/15 21:59 AEDT (12/15 10:59 UTC)
予報対象時間: 15日23時 AEDT ~ 17日5時 AEDT
風向・風速北北東 5m/s
視程10km以上
天気現象弱いしゅう雨
少しの雲 雲底高度 150m
全天の8割程度の雲 雲底高度 240m
16日9時 AEDT から
風向・風速北 6m/s
視程10km以上
全天の4割程度の雲 雲底高度 300m
全天の4割程度の雲 雲底高度 610m
16日11時 AEDT から
風向・風速北東 10m/s
視程10km以上
天気現象弱いしゅう雨
全天の4割程度の雲 雲底高度 1070m
16日20時 AEDT から
風向・風速北北東 6m/s
視程10km以上
天気現象弱いしゅう雨
全天の4割程度の雲 雲底高度 610m
17日1時 AEDT から
風向・風速北北西 3m/s
視程10km以上
全天の4割程度の雲 雲底高度 240m
15日23時 AEDT から 確率 30% で
視程4000m
天気現象もや
全天の8割程度の雲 雲底高度 150m
16日14時 AEDT ~ 16日21時 AEDT に 確率 40% で一時的に
風向・風速北北西 10m/s 瞬間風速 21m/s
視程2000m
天気現象強い雷雨
全天の8割程度の雲 雲底高度 240m
全天の4割程度の積乱雲 雲底高度 1220m
TAF YSSY 151059Z 1512/1618 03010KT 9999 -SHRA FEW005 BKN008
FM152200 01012KT 9999 SCT010 SCT020
FM160000 04020KT 9999 -SHRA SCT035
FM160900 03012KT 9999 -SHRA SCT020
FM161400 33005KT 9999 SCT008
PROB30 1512/1521 4000 BR BKN005
PROB40 TEMPO 1603/1610 34020G40KT 2000 +TSRA BKN008 SCT040CB